createdAt,value
2019-03-03T00:05:24.630Z,1.93
2019-03-03T00:15:25.499Z,1.67
2019-03-03T00:25:28.135Z,1.90
2019-03-03T00:35:31.656Z,3.13
2019-03-03T00:45:36.468Z,3.03
2019-03-03T00:55:37.148Z,3.60
2019-03-03T01:05:38.857Z,4.43
2019-03-03T01:15:39.539Z,4.03
2019-03-03T01:25:45.848Z,3.87
2019-03-03T01:35:52.150Z,3.73
2019-03-03T01:45:55.746Z,2.40
2019-03-03T01:55:57.430Z,2.60
2019-03-03T02:06:00.175Z,2.23
2019-03-03T02:16:00.856Z,2.10
2019-03-03T02:26:02.660Z,1.90
2019-03-03T02:36:03.345Z,2.00
2019-03-03T02:46:04.030Z,1.93
2019-03-03T02:56:04.715Z,1.87
2019-03-03T03:06:06.684Z,1.90
2019-03-03T03:16:07.403Z,1.43
2019-03-03T03:26:09.134Z,1.83
2019-03-03T03:36:10.049Z,1.23
2019-03-03T03:46:10.795Z,1.23
2019-03-03T03:56:11.589Z,1.50
2019-03-03T04:06:19.359Z,1.40
2019-03-03T04:16:20.030Z,1.60
2019-03-03T04:26:22.752Z,1.93
2019-03-03T04:36:27.332Z,1.60
2019-03-03T04:46:28.009Z,1.80
2019-03-03T04:56:28.958Z,1.63
2019-03-03T05:06:29.915Z,1.93
2019-03-03T05:16:31.509Z,1.63
2019-03-03T05:26:33.214Z,1.70
2019-03-03T05:36:34.906Z,1.70
2019-03-03T05:46:35.597Z,2.00
2019-03-03T05:56:38.462Z,1.23
2019-03-03T06:06:39.129Z,2.10
2019-03-03T06:16:42.079Z,2.43
2019-03-03T06:26:43.038Z,1.83
2019-03-03T06:36:43.952Z,1.80
2019-03-03T06:46:44.837Z,1.70
2019-03-03T06:56:45.756Z,1.40
2019-03-03T07:06:46.400Z,1.43
2019-03-03T07:16:47.320Z,1.60
2019-03-03T07:26:48.003Z,1.80
2019-03-03T07:36:48.939Z,2.00
2019-03-03T07:46:49.664Z,2.33
2019-03-03T07:56:51.441Z,1.50
2019-03-03T08:06:53.428Z,2.10
2019-03-03T08:16:54.438Z,2.10
2019-03-03T08:26:55.142Z,2.30
2019-03-03T08:36:55.853Z,2.13
2019-03-03T08:46:56.562Z,1.83
2019-03-03T08:56:57.443Z,2.10
2019-03-03T09:06:58.091Z,2.13
2019-03-03T09:16:58.789Z,1.60
2019-03-03T09:26:59.466Z,1.83
2019-03-03T09:37:00.387Z,1.40
2019-03-03T09:47:01.100Z,1.93
2019-03-03T09:57:01.819Z,1.97
2019-03-03T10:07:02.978Z,1.30
2019-03-03T10:17:03.957Z,1.73
2019-03-03T10:27:04.649Z,1.83
2019-03-03T10:37:05.689Z,1.30
2019-03-03T10:47:06.718Z,1.27
2019-03-03T10:57:08.442Z,1.63
2019-03-03T11:07:09.160Z,1.73
2019-03-03T11:17:10.942Z,2.10
2019-03-03T11:27:12.556Z,1.93
2019-03-03T11:37:14.267Z,2.07
2019-03-03T11:47:15.747Z,2.03
2019-03-03T11:57:25.227Z,2.20
2019-03-03T12:11:44.844Z,2.03
2019-03-03T12:17:29.813Z,3.23
2019-03-03T12:27:30.848Z,2.67
2019-03-03T12:37:31.778Z,2.40
2019-03-03T12:47:33.649Z,2.17
2019-03-03T12:57:34.450Z,1.67
2019-03-03T13:07:35.185Z,1.90
2019-03-03T13:17:35.847Z,1.63
2019-03-03T13:27:36.612Z,1.60
2019-03-03T13:37:39.020Z,1.00
2019-03-03T13:47:43.096Z,1.00
2019-03-03T13:57:45.242Z,0.90
2019-03-03T14:07:46.180Z,1.13
2019-03-03T14:17:47.121Z,1.53
2019-03-03T14:27:48.172Z,1.00
2019-03-03T14:37:50.249Z,1.00
2019-03-03T14:47:53.071Z,1.00
2019-03-03T14:57:53.861Z,1.20
2019-03-03T15:07:56.608Z,1.40
2019-03-03T15:28:26.038Z,1.30
2019-03-03T15:38:35.853Z,1.50
2019-03-03T15:59:55.150Z,1.37
2019-03-03T16:20:07.057Z,1.30
2019-03-03T16:30:20.982Z,1.20
2019-03-03T16:40:39.876Z,1.37
2019-03-03T16:50:37.050Z,1.80
2019-03-03T17:00:37.564Z,1.90
2019-03-03T17:10:38.205Z,2.00
2019-03-03T17:20:38.908Z,3.40
2019-03-03T17:30:39.583Z,3.60
2019-03-03T17:40:41.327Z,3.67
2019-03-03T17:50:41.980Z,3.47
2019-03-03T18:00:42.701Z,3.40
2019-03-03T18:10:44.651Z,2.50
2019-03-03T18:20:46.381Z,2.93
2019-03-03T18:30:49.052Z,2.50
2019-03-03T18:40:55.625Z,1.97
2019-03-03T18:50:57.579Z,2.13
2019-03-03T19:00:58.233Z,2.30
2019-03-03T19:10:58.955Z,1.90
2019-03-03T19:20:59.610Z,1.70
2019-03-03T19:31:01.311Z,2.20
2019-03-03T19:41:02.010Z,2.00
2019-03-03T19:51:03.421Z,2.63
2019-03-03T20:01:04.411Z,2.67
2019-03-03T20:11:05.319Z,2.50
2019-03-03T20:21:05.952Z,2.33
2019-03-03T20:31:06.644Z,2.30
2019-03-03T20:41:07.561Z,2.43
2019-03-03T20:51:09.249Z,2.60
2019-03-03T21:01:10.459Z,2.30
2019-03-03T21:11:11.356Z,2.60
2019-03-03T21:21:12.237Z,2.80
2019-03-03T21:31:13.165Z,2.70
2019-03-03T21:41:14.040Z,3.33
2019-03-03T21:51:14.908Z,2.97
2019-03-03T22:01:15.550Z,2.67
2019-03-03T22:11:16.252Z,3.30
2019-03-03T22:21:17.175Z,3.33
2019-03-03T22:31:17.941Z,2.70
2019-03-03T22:41:18.596Z,2.37
2019-03-03T22:51:19.530Z,1.80
2019-03-03T23:01:20.620Z,1.33
2019-03-03T23:11:34.129Z,1.07
2019-03-03T23:21:47.870Z,1.33
2019-03-03T23:31:48.709Z,0.93
2019-03-03T23:41:49.427Z,1.17
2019-03-03T23:51:50.380Z,1.30
